sensor_id;sensor_type;location;lat;lon;timestamp;pressure;altitude;pressure_sealevel;temperature;humidity
76260;BME280;65076;52.362;6.588;2023-11-22T00:05:21;102821.16;;;5.60;80.04
76260;BME280;65076;52.362;6.588;2023-11-22T00:07:53;102825.63;;;5.54;80.55
76260;BME280;65076;52.362;6.588;2023-11-22T00:20:30;102839.16;;;5.80;80.87
76260;BME280;65076;52.362;6.588;2023-11-22T00:25:34;102845.34;;;5.67;80.63
76260;BME280;65076;52.362;6.588;2023-11-22T00:28:06;102844.94;;;4.91;82.18
76260;BME280;65076;52.362;6.588;2023-11-22T00:30:38;102848.34;;;4.71;84.66
76260;BME280;65076;52.362;6.588;2023-11-22T00:38:11;102850.44;;;5.14;85.36
76260;BME280;65076;52.362;6.588;2023-11-22T00:43:14;102853.94;;;5.04;83.59
76260;BME280;65076;52.362;6.588;2023-11-22T00:45:51;102856.66;;;5.05;84.38
76260;BME280;65076;52.362;6.588;2023-11-22T00:53:25;102872.97;;;5.42;83.35
76260;BME280;65076;52.362;6.588;2023-11-22T00:58:27;102869.19;;;5.11;83.04
76260;BME280;65076;52.362;6.588;2023-11-22T01:03:31;102868.00;;;4.69;86.24
76260;BME280;65076;52.362;6.588;2023-11-22T01:08:34;102884.22;;;4.88;86.66
76260;BME280;65076;52.362;6.588;2023-11-22T01:11:07;102889.69;;;5.03;85.04
76260;BME280;65076;52.362;6.588;2023-11-22T01:16:11;102895.03;;;4.97;84.87
76260;BME280;65076;52.362;6.588;2023-11-22T01:23:44;102926.34;;;4.99;82.93
76260;BME280;65076;52.362;6.588;2023-11-22T01:28:45;102933.88;;;4.45;86.34
76260;BME280;65076;52.362;6.588;2023-11-22T01:34:18;102935.78;;;3.79;88.35
76260;BME280;65076;52.362;6.588;2023-11-22T01:41:54;102958.34;;;4.00;90.27
76260;BME280;65076;52.362;6.588;2023-11-22T01:54:27;102932.16;;;3.77;90.40
76260;BME280;65076;52.362;6.588;2023-11-22T01:57:05;102932.13;;;3.74;90.10
76260;BME280;65076;52.362;6.588;2023-11-22T02:04:38;102909.59;;;4.28;88.20
76260;BME280;65076;52.362;6.588;2023-11-22T02:07:11;102913.06;;;4.18;87.68
76260;BME280;65076;52.362;6.588;2023-11-22T02:14:50;102892.34;;;4.05;86.33
76260;BME280;65076;52.362;6.588;2023-11-22T02:22:21;102906.84;;;4.25;86.48
76260;BME280;65076;52.362;6.588;2023-11-22T02:27:23;102920.00;;;4.02;87.44
76260;BME280;65076;52.362;6.588;2023-11-22T02:32:24;102933.97;;;4.55;85.96
76260;BME280;65076;52.362;6.588;2023-11-22T02:35:00;102938.53;;;4.64;84.39
76260;BME280;65076;52.362;6.588;2023-11-22T02:42:40;102949.44;;;4.81;82.57
76260;BME280;65076;52.362;6.588;2023-11-22T02:47:41;102944.00;;;4.73;81.25
76260;BME280;65076;52.362;6.588;2023-11-22T02:52:46;102945.00;;;4.86;80.91
76260;BME280;65076;52.362;6.588;2023-11-22T02:57:49;102936.88;;;4.78;80.72
76260;BME280;65076;52.362;6.588;2023-11-22T03:02:55;102934.28;;;4.87;80.06
76260;BME280;65076;52.362;6.588;2023-11-22T03:05:30;102927.06;;;4.79;79.71
76260;BME280;65076;52.362;6.588;2023-11-22T03:13:11;102939.63;;;4.84;80.26
76260;BME280;65076;52.362;6.588;2023-11-22T03:20:45;102922.16;;;4.35;78.75
76260;BME280;65076;52.362;6.588;2023-11-22T03:28:27;102952.72;;;4.55;80.11
76260;BME280;65076;52.362;6.588;2023-11-22T03:36:01;102972.41;;;4.56;79.20
76260;BME280;65076;52.362;6.588;2023-11-22T03:41:05;102988.44;;;4.51;78.20
76260;BME280;65076;52.362;6.588;2023-11-22T03:48:44;103008.56;;;4.16;77.91
76260;BME280;65076;52.362;6.588;2023-11-22T03:59:00;103018.44;;;4.18;77.63
76260;BME280;65076;52.362;6.588;2023-11-22T04:04:07;103015.81;;;3.61;78.49
76260;BME280;65076;52.362;6.588;2023-11-22T04:09:07;102995.38;;;3.68;78.61
76260;BME280;65076;52.362;6.588;2023-11-22T04:11:44;103026.13;;;3.94;78.62
76260;BME280;65076;52.362;6.588;2023-11-22T04:16:48;103020.91;;;4.05;77.52
76260;BME280;65076;52.362;6.588;2023-11-22T04:21:52;102994.56;;;3.70;78.76
76260;BME280;65076;52.362;6.588;2023-11-22T04:29:20;103010.31;;;4.12;78.34
76260;BME280;65076;52.362;6.588;2023-11-22T04:31:55;103011.88;;;3.98;77.65
76260;BME280;65076;52.362;6.588;2023-11-22T04:34:28;103018.28;;;4.08;77.84
76260;BME280;65076;52.362;6.588;2023-11-22T04:42:05;103012.22;;;4.24;77.04
76260;BME280;65076;52.362;6.588;2023-11-22T04:49:38;103033.53;;;4.13;77.33
76260;BME280;65076;52.362;6.588;2023-11-22T04:54:41;103028.69;;;3.88;76.06
76260;BME280;65076;52.362;6.588;2023-11-22T04:57:19;103024.31;;;3.92;76.57
76260;BME280;65076;52.362;6.588;2023-11-22T04:59:51;103033.22;;;3.91;76.02
76260;BME280;65076;52.362;6.588;2023-11-22T05:02:30;103039.63;;;4.03;76.42
76260;BME280;65076;52.362;6.588;2023-11-22T05:07:32;103033.19;;;3.89;76.23
76260;BME280;65076;52.362;6.588;2023-11-22T05:10:07;103038.53;;;3.89;76.30
76260;BME280;65076;52.362;6.588;2023-11-22T05:17:49;103039.88;;;3.61;78.35
76260;BME280;65076;52.362;6.588;2023-11-22T05:25:23;103024.34;;;3.95;77.58
76260;BME280;65076;52.362;6.588;2023-11-22T05:30:23;103026.16;;;3.96;78.02
76260;BME280;65076;52.362;6.588;2023-11-22T05:32:58;103022.47;;;3.89;76.65
76260;BME280;65076;52.362;6.588;2023-11-22T05:40:28;103045.66;;;3.89;76.93
76260;BME280;65076;52.362;6.588;2023-11-22T05:45:31;103033.00;;;3.75;76.32
76260;BME280;65076;52.362;6.588;2023-11-22T05:50:39;103026.50;;;3.61;75.75
76260;BME280;65076;52.362;6.588;2023-11-22T05:58:13;103022.66;;;3.42;75.63
76260;BME280;65076;52.362;6.588;2023-11-22T06:00:46;103036.63;;;3.23;77.05
76260;BME280;65076;52.362;6.588;2023-11-22T06:08:22;103059.19;;;3.39;77.48
76260;BME280;65076;52.362;6.588;2023-11-22T06:10:57;103076.22;;;3.46;77.61
76260;BME280;65076;52.362;6.588;2023-11-22T06:18:24;103055.72;;;2.50;79.63
76260;BME280;65076;52.362;6.588;2023-11-22T06:20:59;103073.00;;;3.14;80.49
76260;BME280;65076;52.362;6.588;2023-11-22T06:28:35;103081.38;;;3.33;78.15
76260;BME280;65076;52.362;6.588;2023-11-22T06:33:36;103092.25;;;3.44;78.44
76260;BME280;65076;52.362;6.588;2023-11-22T06:36:08;103096.25;;;3.18;78.08
76260;BME280;65076;52.362;6.588;2023-11-22T06:43:49;103116.19;;;3.36;80.09
76260;BME280;65076;52.362;6.588;2023-11-22T06:46:27;103112.88;;;3.50;79.51
76260;BME280;65076;52.362;6.588;2023-11-22T06:49:02;103111.09;;;3.50;79.17
76260;BME280;65076;52.362;6.588;2023-11-22T06:54:05;103121.84;;;3.05;78.25
76260;BME280;65076;52.362;6.588;2023-11-22T06:56:40;103117.41;;;2.62;81.63
76260;BME280;65076;52.362;6.588;2023-11-22T07:04:18;103122.53;;;3.41;78.66
76260;BME280;65076;52.362;6.588;2023-11-22T07:06:51;103113.78;;;3.50;77.15
76260;BME280;65076;52.362;6.588;2023-11-22T07:14:29;103116.94;;;3.28;77.31
76260;BME280;65076;52.362;6.588;2023-11-22T07:19:36;103101.63;;;3.70;78.92
76260;BME280;65076;52.362;6.588;2023-11-22T07:24:49;103081.63;;;4.03;76.66
76260;BME280;65076;52.362;6.588;2023-11-22T07:29:50;103081.06;;;4.30;77.54
76260;BME280;65076;52.362;6.588;2023-11-22T07:32:23;103074.25;;;4.56;74.98
76260;BME280;65076;52.362;6.588;2023-11-22T07:37:41;103080.25;;;5.09;75.34
76260;BME280;65076;52.362;6.588;2023-11-22T07:42:51;103089.28;;;5.17;72.17
76260;BME280;65076;52.362;6.588;2023-11-22T07:47:51;103059.75;;;5.17;71.72
76260;BME280;65076;52.362;6.588;2023-11-22T07:50:31;103087.09;;;5.76;72.52
76260;BME280;65076;52.362;6.588;2023-11-22T07:55:35;103080.00;;;5.80;70.10
76260;BME280;65076;52.362;6.588;2023-11-22T08:00:35;103092.97;;;6.49;69.05
76260;BME280;65076;52.362;6.588;2023-11-22T08:03:10;103091.19;;;6.47;68.18
76260;BME280;65076;52.362;6.588;2023-11-22T08:10:51;103095.94;;;7.37;67.55
76260;BME280;65076;52.362;6.588;2023-11-22T08:18:27;103105.81;;;7.82;65.62
76260;BME280;65076;52.362;6.588;2023-11-22T08:23:26;103116.59;;;7.76;66.03
76260;BME280;65076;52.362;6.588;2023-11-22T08:31:02;103130.03;;;8.23;65.58
76260;BME280;65076;52.362;6.588;2023-11-22T08:33:39;103128.28;;;7.68;65.73
76260;BME280;65076;52.362;6.588;2023-11-22T08:38:43;103129.13;;;8.23;66.45
76260;BME280;65076;52.362;6.588;2023-11-22T08:43:46;103111.19;;;7.99;67.04
76260;BME280;65076;52.362;6.588;2023-11-22T08:46:25;103132.75;;;8.31;68.09
76260;BME280;65076;52.362;6.588;2023-11-22T08:51:34;103149.81;;;7.81;66.59
76260;BME280;65076;52.362;6.588;2023-11-22T08:59:04;103146.22;;;7.75;68.03
76260;BME280;65076;52.362;6.588;2023-11-22T09:01:38;103148.91;;;7.49;67.41
76260;BME280;65076;52.362;6.588;2023-11-22T09:09:13;103135.25;;;6.80;70.33
76260;BME280;65076;52.362;6.588;2023-11-22T09:11:46;103138.78;;;6.66;71.84
76260;BME280;65076;52.362;6.588;2023-11-22T09:19:24;103141.47;;;6.70;72.26
76260;BME280;65076;52.362;6.588;2023-11-22T09:24:27;103166.59;;;6.68;72.04
76260;BME280;65076;52.362;6.588;2023-11-22T09:26:59;103153.91;;;6.43;74.11
76260;BME280;65076;52.362;6.588;2023-11-22T09:29:36;103154.84;;;6.55;73.15
76260;BME280;65076;52.362;6.588;2023-11-22T09:37:18;103140.72;;;7.00;72.66
76260;BME280;65076;52.362;6.588;2023-11-22T09:42:21;103132.31;;;6.32;73.98
76260;BME280;65076;52.362;6.588;2023-11-22T09:47:23;103134.00;;;6.18;76.36
76260;BME280;65076;52.362;6.588;2023-11-22T09:49:56;103137.56;;;6.14;75.40
76260;BME280;65076;52.362;6.588;2023-11-22T10:00:07;103144.81;;;6.25;75.59
76260;BME280;65076;52.362;6.588;2023-11-22T10:05:16;103148.56;;;6.50;73.71
76260;BME280;65076;52.362;6.588;2023-11-22T10:10:22;103165.03;;;5.79;75.66
76260;BME280;65076;52.362;6.588;2023-11-22T10:15:30;103149.09;;;5.94;74.74
76260;BME280;65076;52.362;6.588;2023-11-22T10:23:00;103146.69;;;6.35;74.36
76260;BME280;65076;52.362;6.588;2023-11-22T10:25:34;103139.63;;;6.57;74.27
76260;BME280;65076;52.362;6.588;2023-11-22T10:33:04;103115.44;;;6.65;71.73
76260;BME280;65076;52.362;6.588;2023-11-22T10:35:37;103114.53;;;6.60;72.12
76260;BME280;65076;52.362;6.588;2023-11-22T10:43:11;103108.38;;;6.87;71.68
76260;BME280;65076;52.362;6.588;2023-11-22T10:48:18;103111.13;;;7.09;71.47
76260;BME280;65076;52.362;6.588;2023-11-22T10:53:21;103096.84;;;7.47;69.72
76260;BME280;65076;52.362;6.588;2023-11-22T11:00:59;103095.00;;;7.11;69.44
76260;BME280;65076;52.362;6.588;2023-11-22T11:06:08;103088.72;;;7.24;67.82
76260;BME280;65076;52.362;6.588;2023-11-22T11:08:45;103111.22;;;7.58;66.85
76260;BME280;65076;52.362;6.588;2023-11-22T11:16:22;103079.78;;;7.42;66.91
76260;BME280;65076;52.362;6.588;2023-11-22T11:26:34;102996.25;;;7.54;64.32
76260;BME280;65076;52.362;6.588;2023-11-22T11:31:38;102981.03;;;7.10;65.04
76260;BME280;65076;52.362;6.588;2023-11-22T11:36:48;102969.31;;;7.54;65.68
76260;BME280;65076;52.362;6.588;2023-11-22T11:44:27;102937.78;;;8.00;65.02
76260;BME280;65076;52.362;6.588;2023-11-22T11:51:54;102938.47;;;8.43;63.80
76260;BME280;65076;52.362;6.588;2023-11-22T11:56:58;102950.28;;;8.16;64.61
76260;BME280;65076;52.362;6.588;2023-11-22T12:02:04;102942.78;;;8.77;63.68
76260;BME280;65076;52.362;6.588;2023-11-22T12:07:10;102927.69;;;8.46;61.49
76260;BME280;65076;52.362;6.588;2023-11-22T12:12:17;102910.66;;;9.43;59.66
76260;BME280;65076;52.362;6.588;2023-11-22T12:17:24;102945.34;;;8.94;58.62
76260;BME280;65076;52.362;6.588;2023-11-22T12:22:29;102931.69;;;9.11;58.60
76260;BME280;65076;52.362;6.588;2023-11-22T12:25:02;102924.19;;;8.18;59.43
76260;BME280;65076;52.362;6.588;2023-11-22T12:35:10;102921.50;;;8.32;61.37
76260;BME280;65076;52.362;6.588;2023-11-22T12:42:50;102920.72;;;9.30;57.12
76260;BME280;65076;52.362;6.588;2023-11-22T12:47:49;102900.69;;;9.50;55.96
76260;BME280;65076;52.362;6.588;2023-11-22T12:52:56;102918.03;;;9.29;56.29
76260;BME280;65076;52.362;6.588;2023-11-22T12:57:59;102909.03;;;9.27;54.77
76260;BME280;65076;52.362;6.588;2023-11-22T13:03:03;102895.00;;;8.85;56.74
76260;BME280;65076;52.362;6.588;2023-11-22T13:05:44;102896.94;;;8.71;56.59
76260;BME280;65076;52.362;6.588;2023-11-22T13:15:54;102883.00;;;7.93;58.12
76260;BME280;65076;52.362;6.588;2023-11-22T13:18:27;102862.13;;;8.27;58.37
76260;BME280;65076;52.362;6.588;2023-11-22T13:25:56;102857.03;;;7.73;59.57
76260;BME280;65076;52.362;6.588;2023-11-22T13:28:27;102855.28;;;7.62;61.43
76260;BME280;65076;52.362;6.588;2023-11-22T13:36:03;102854.41;;;7.51;61.71
76260;BME280;65076;52.362;6.588;2023-11-22T13:43:38;102825.44;;;8.02;59.86
76260;BME280;65076;52.362;6.588;2023-11-22T13:51:11;102846.22;;;7.83;60.98
76260;BME280;65076;52.362;6.588;2023-11-22T13:56:13;102812.03;;;7.87;61.26
76260;BME280;65076;52.362;6.588;2023-11-22T13:58:46;102825.69;;;7.49;61.89
76260;BME280;65076;52.362;6.588;2023-11-22T14:06:23;102844.38;;;7.88;62.69
76260;BME280;65076;52.362;6.588;2023-11-22T14:13:56;102840.66;;;8.14;61.85
76260;BME280;65076;52.362;6.588;2023-11-22T14:19:04;102826.34;;;8.04;62.42
76260;BME280;65076;52.362;6.588;2023-11-22T14:26:52;102816.28;;;8.29;63.17
76260;BME280;65076;52.362;6.588;2023-11-22T14:31:54;102820.16;;;7.82;63.61
76260;BME280;65076;52.362;6.588;2023-11-22T14:34:26;102819.19;;;7.95;63.39
76260;BME280;65076;52.362;6.588;2023-11-22T14:39:34;102830.13;;;7.66;63.92
76260;BME280;65076;52.362;6.588;2023-11-22T14:47:13;102829.38;;;7.13;65.01
76260;BME280;65076;52.362;6.588;2023-11-22T14:52:22;102821.19;;;7.58;64.79
76260;BME280;65076;52.362;6.588;2023-11-22T14:59:57;102823.97;;;7.23;65.63
76260;BME280;65076;52.362;6.588;2023-11-22T15:02:33;102824.00;;;7.14;65.53
76260;BME280;65076;52.362;6.588;2023-11-22T15:10:09;102810.50;;;7.37;66.17
76260;BME280;65076;52.362;6.588;2023-11-22T15:15:16;102813.22;;;7.17;67.97
76260;BME280;65076;52.362;6.588;2023-11-22T15:20:18;102770.22;;;6.92;68.22
76260;BME280;65076;52.362;6.588;2023-11-22T15:27:53;102776.53;;;6.83;70.18
76260;BME280;65076;52.362;6.588;2023-11-22T15:30:33;102786.41;;;6.78;69.21
76260;BME280;65076;52.362;6.588;2023-11-22T15:38:09;102796.25;;;6.77;70.29
76260;BME280;65076;52.362;6.588;2023-11-22T15:43:10;102814.22;;;6.47;71.05
76260;BME280;65076;52.362;6.588;2023-11-22T15:45:41;102811.50;;;6.22;71.63
76260;BME280;65076;52.362;6.588;2023-11-22T15:48:19;102794.50;;;6.52;71.55
76260;BME280;65076;52.362;6.588;2023-11-22T15:53:23;102777.47;;;6.27;72.39
76260;BME280;65076;52.362;6.588;2023-11-22T15:55:56;102777.44;;;6.61;72.02
76260;BME280;65076;52.362;6.588;2023-11-22T16:03:27;102779.25;;;6.27;73.26
76260;BME280;65076;52.362;6.588;2023-11-22T16:08:31;102765.78;;;6.60;73.24
76260;BME280;65076;52.362;6.588;2023-11-22T16:16:00;102737.94;;;6.81;74.03
76260;BME280;65076;52.362;6.588;2023-11-22T16:21:02;102733.50;;;6.65;74.11
76260;BME280;65076;52.362;6.588;2023-11-22T16:28:38;102693.13;;;6.85;73.66
76260;BME280;65076;52.362;6.588;2023-11-22T16:33:48;102721.00;;;6.59;75.78
76260;BME280;65076;52.362;6.588;2023-11-22T16:38:53;102689.63;;;6.48;76.20
76260;BME280;65076;52.362;6.588;2023-11-22T16:41:26;102686.03;;;6.52;76.85
76260;BME280;65076;52.362;6.588;2023-11-22T16:49:05;102680.66;;;6.58;76.63
76260;BME280;65076;52.362;6.588;2023-11-22T16:56:41;102670.78;;;6.58;76.36
76260;BME280;65076;52.362;6.588;2023-11-22T17:01:41;102668.97;;;6.66;76.86
76260;BME280;65076;52.362;6.588;2023-11-22T17:04:19;102675.16;;;6.94;75.98
76260;BME280;65076;52.362;6.588;2023-11-22T17:06:52;102667.16;;;6.65;76.24
76260;BME280;65076;52.362;6.588;2023-11-22T17:09:25;102688.63;;;6.88;75.97
76260;BME280;65076;52.362;6.588;2023-11-22T17:14:27;102677.03;;;6.62;77.23
76260;BME280;65076;52.362;6.588;2023-11-22T17:19:30;102662.69;;;6.60;76.36
76260;BME280;65076;52.362;6.588;2023-11-22T17:24:27;102670.72;;;6.70;76.34
76260;BME280;65076;52.362;6.588;2023-11-22T17:34:57;102649.16;;;6.86;75.69
76260;BME280;65076;52.362;6.588;2023-11-22T17:44:58;102667.94;;;7.02;76.29
76260;BME280;65076;52.362;6.588;2023-11-22T18:00:19;102642.84;;;7.00;75.98
76260;BME280;65076;52.362;6.588;2023-11-22T18:07:56;102638.31;;;7.04;76.38
76260;BME280;65076;52.362;6.588;2023-11-22T18:15:29;102623.94;;;7.09;76.14
76260;BME280;65076;52.362;6.588;2023-11-22T18:22:59;102595.34;;;6.90;76.19
76260;BME280;65076;52.362;6.588;2023-11-22T18:28:02;102593.41;;;7.13;76.35
76260;BME280;65076;52.362;6.588;2023-11-22T18:33:07;102605.25;;;6.85;76.53
76260;BME280;65076;52.362;6.588;2023-11-22T18:35:40;102600.69;;;6.96;76.75
76260;BME280;65076;52.362;6.588;2023-11-22T18:45:54;102589.03;;;6.93;77.14
76260;BME280;65076;52.362;6.588;2023-11-22T18:53:32;102580.88;;;7.09;76.76
76260;BME280;65076;52.362;6.588;2023-11-22T18:58:41;102582.00;;;6.69;77.18
76260;BME280;65076;52.362;6.588;2023-11-22T19:01:22;102572.97;;;6.79;77.70
76260;BME280;65076;52.362;6.588;2023-11-22T19:03:55;102546.03;;;6.88;77.00
76260;BME280;65076;52.362;6.588;2023-11-22T19:08:59;102530.09;;;6.44;78.41
76260;BME280;65076;52.362;6.588;2023-11-22T19:14:03;102534.56;;;6.48;78.75
76260;BME280;65076;52.362;6.588;2023-11-22T19:16:39;102547.00;;;6.70;78.32
76260;BME280;65076;52.362;6.588;2023-11-22T19:24:19;102517.34;;;6.84;77.59
76260;BME280;65076;52.362;6.588;2023-11-22T19:29:20;102502.06;;;6.89;77.14
76260;BME280;65076;52.362;6.588;2023-11-22T19:31:54;102515.59;;;6.78;77.98
76260;BME280;65076;52.362;6.588;2023-11-22T19:39:30;102492.19;;;6.96;77.03
76260;BME280;65076;52.362;6.588;2023-11-22T19:44:32;102490.44;;;6.84;77.19
76260;BME280;65076;52.362;6.588;2023-11-22T19:52:26;102483.00;;;7.19;76.96
76260;BME280;65076;52.362;6.588;2023-11-22T19:55:01;102504.69;;;6.98;77.56
76260;BME280;65076;52.362;6.588;2023-11-22T20:02:38;102486.75;;;6.97;77.93
76260;BME280;65076;52.362;6.588;2023-11-22T20:10:23;102496.59;;;7.04;78.17
76260;BME280;65076;52.362;6.588;2023-11-22T20:17:51;102477.00;;;6.82;78.78
76260;BME280;65076;52.362;6.588;2023-11-22T20:22:52;102484.22;;;6.79;79.17
76260;BME280;65076;52.362;6.588;2023-11-22T20:35:46;102499.34;;;6.95;80.48
76260;BME280;65076;52.362;6.588;2023-11-22T20:40:51;102514.28;;;7.36;79.59
76260;BME280;65076;52.362;6.588;2023-11-22T20:45:56;102515.19;;;7.38;78.92
76260;BME280;65076;52.362;6.588;2023-11-22T20:48:33;102513.25;;;7.49;78.70
76260;BME280;65076;52.362;6.588;2023-11-22T20:51:09;102511.59;;;7.36;79.43
76260;BME280;65076;52.362;6.588;2023-11-22T20:58:41;102491.03;;;7.24;80.14
76260;BME280;65076;52.362;6.588;2023-11-22T21:03:43;102489.97;;;7.48;79.93
76260;BME280;65076;52.362;6.588;2023-11-22T21:08:48;102478.25;;;7.50;81.05
76260;BME280;65076;52.362;6.588;2023-11-22T21:16:24;102466.41;;;7.68;81.29
76260;BME280;65076;52.362;6.588;2023-11-22T21:19:00;102448.53;;;7.59;81.49
76260;BME280;65076;52.362;6.588;2023-11-22T21:26:35;102450.63;;;7.30;82.82
76260;BME280;65076;52.362;6.588;2023-11-22T21:34:10;102431.81;;;7.24;84.45
76260;BME280;65076;52.362;6.588;2023-11-22T21:41:45;102417.41;;;7.31;84.40
76260;BME280;65076;52.362;6.588;2023-11-22T21:46:50;102428.81;;;7.57;83.79
76260;BME280;65076;52.362;6.588;2023-11-22T21:51:58;102412.72;;;7.50;83.75
76260;BME280;65076;52.362;6.588;2023-11-22T21:57:03;102416.41;;;7.41;86.25
76260;BME280;65076;52.362;6.588;2023-11-22T22:02:10;102407.44;;;7.39;86.36
76260;BME280;65076;52.362;6.588;2023-11-22T22:04:44;102392.84;;;7.63;86.47
76260;BME280;65076;52.362;6.588;2023-11-22T22:09:58;102390.47;;;7.33;89.18
76260;BME280;65076;52.362;6.588;2023-11-22T22:17:36;102371.00;;;7.06;90.74
76260;BME280;65076;52.362;6.588;2023-11-22T22:20:13;102371.53;;;7.42;90.81
76260;BME280;65076;52.362;6.588;2023-11-22T22:22:45;102369.97;;;7.19;91.37
76260;BME280;65076;52.362;6.588;2023-11-22T22:27:56;102365.31;;;7.35;92.45
76260;BME280;65076;52.362;6.588;2023-11-22T22:33:00;102366.16;;;7.42;92.71
76260;BME280;65076;52.362;6.588;2023-11-22T22:38:00;102365.13;;;7.53;93.14
76260;BME280;65076;52.362;6.588;2023-11-22T22:40:36;102354.59;;;7.28;93.49
76260;BME280;65076;52.362;6.588;2023-11-22T22:48:19;102339.22;;;7.40;94.37
76260;BME280;65076;52.362;6.588;2023-11-22T22:50:52;102334.91;;;7.26;94.43
76260;BME280;65076;52.362;6.588;2023-11-22T22:58:25;102336.16;;;7.71;94.32
76260;BME280;65076;52.362;6.588;2023-11-22T23:06:05;102348.19;;;7.39;94.83
76260;BME280;65076;52.362;6.588;2023-11-22T23:11:08;102338.97;;;7.61;95.36
76260;BME280;65076;52.362;6.588;2023-11-22T23:21:24;102304.72;;;7.74;94.88
76260;BME280;65076;52.362;6.588;2023-11-22T23:26:25;102318.22;;;7.70;94.75
76260;BME280;65076;52.362;6.588;2023-11-22T23:32:01;102316.44;;;7.69;96.47
76260;BME280;65076;52.362;6.588;2023-11-22T23:34:34;102307.47;;;7.66;96.92
76260;BME280;65076;52.362;6.588;2023-11-22T23:37:10;102305.69;;;7.69;97.12
76260;BME280;65076;52.362;6.588;2023-11-22T23:44:54;102287.47;;;7.86;97.54
76260;BME280;65076;52.362;6.588;2023-11-22T23:52:32;102307.00;;;8.03;97.14
76260;BME280;65076;52.362;6.588;2023-11-22T23:57:37;102305.28;;;7.97;97.31
